Whtdeer, Pennsylvania
Current Conditions -  °F | °C
As of 7:54 PM on Friday 31 Oct 2014 (Local Time) from KIPT Reporting Station
Overcast Overcast  
Wind Chill: 48°   Ceiling: 6000
Heat Index: 48°   Visibility: 10mi
Dew Point: 34°   Wind: 0mph
Humidity: 58%   Direction: NA
Pressure: 29.9"   Gusts: NA
Location:  41.0758°N, 76.8752°W
Report Text: KIPT 312354Z 00000KT 10SM OVC060 09/01 A2990 RMK AO2 SLP126 T00890011 10117 20089 53006
Loading
Personal Weather Stations






























Interactive Weather Map
Tropical Storm Tracking
New forecast layout! Learn more

10-Day Weather Forecast

Advertisements
Track Severe Weather on mobile